Terminal Aerodrome Forecast
Issued by NWS

Home | Current Version | Previous Version | Graphics & Text | Print | Product List | Glossary On
Versions: 1 2 3 4 5 6 7 8 9 10 11 12 13 14 15 16 17 18 19 20 21 22
000
FTUS43 KICT 261728
TAFCNU
TAF
KCNU 261728Z 2618/2718 20007KT P6SM BKN080
     FM262100 VRB05KT P6SM VCTS SCT040CB BKN080
     FM270000 08006KT P6SM VCTS BKN050CB
     FM270300 08004KT P6SM SCT100
     FM271700 14007KT P6SM FEW090=

USA.gov is the U.S. government's official web portal to all federal, state and local government web resources and services.